Flight Track Log - Related Links

Times and Time Zones

All times are in EDT time to prevent confusion due to time zone crossing. See the DAL31 flight status page for this flight to view local times or setup timezone preferences in your user account.

Time Position Orientation Groundspeed Altitude Reporting Facility
EDT Latitude Longitude Course Direction KTS MPH feet Rate Location/Type
Sun 03:39:00 AM 55.9667 37.4139 270° West  Level FlightAware Approximate
Sun 03:40:00 AM 55.9667 37.1945 270° West  Level FlightAware Approximate
Sun 03:41:00 AM 55.9780 36.9761 276° West  Level FlightAware Approximate
Sun 03:42:00 AM 55.9834 36.7571 270° West  Level FlightAware Approximate
Sun 03:43:00 AM 55.9846 36.5376 273° West  Level FlightAware Approximate
Sun 03:43:37 AM 55.9880 37.3160 273° West 197 227 2,800  Level FlightAware ADS-B
Sun 03:44:00 AM 55.9902 36.3183 273° West  Level FlightAware Approximate
Sun 03:44:02 AM 56.0090 37.3080 348° North 180 207 4,000  Level FlightAware ADS-B
Sun 03:44:32 AM 56.0330 37.2890 336° Northwest 208 239 4,500 800 Climbing FlightAware ADS-B
Sun 03:44:47 AM 56.0390 37.2660 295° West 232 267 4,600 1,350 Climbing FlightAware ADS-B
Sun 03:45:12 AM 56.0380 37.2200 268° West 253 291 5,400 1,560 Climbing FlightAware ADS-B
Sun 03:45:37 AM 56.0330 37.1610 261° West 260 299 5,900 800 Climbing FlightAware ADS-B
Sun 03:45:57 AM 56.0300 37.1190 263° West 262 302 6,000 400 Climbing FlightAware ADS-B
Sun 03:46:22 AM 56.0260 37.0660 262° West 262 302 6,200 982 Climbing FlightAware ADS-B
Sun 03:46:52 AM 56.0220 36.9990 264° West 274 315 6,900 1,400 Climbing FlightAware ADS-B
Sun 03:47:22 AM 56.0260 36.9450 278° West 264 304 7,600 1,855 Climbing FlightAware ADS-B
Sun 03:47:47 AM 56.0330 36.8840 282° West 270 311 8,600 2,400 Climbing FlightAware ADS-B
Sun 03:48:17 AM 56.0410 36.8140 282° West 272 313 9,800 1,886 Climbing FlightAware ADS-B
Sun 03:48:57 AM 56.0510 36.7230 281° West 298 343 10,800 1,275 Climbing FlightAware ADS-B
Sun 03:49:37 AM 56.0630 36.6220 282° West 335 386 11,500 1,050 Climbing FlightAware ADS-B
Sun 03:50:17 AM 56.0760 36.5060 281° West 369 425 12,200 1,129 Climbing FlightAware ADS-B
Sun 03:51:02 AM 56.0910 36.3670 281° West 402 463 13,100 1,600 Climbing FlightAware ADS-B
Sun 03:51:47 AM 56.1080 36.2160 281° West 414 476 14,600 2,047 Climbing FlightAware ADS-B
Sun 03:52:27 AM 56.1220 36.0790 280° West 422 486 16,000 2,047 Climbing FlightAware ADS-B
Sun 03:53:12 AM 56.1390 35.9230 281° West 429 494 17,500 1,976 Climbing FlightAware ADS-B
Sun 03:53:52 AM 56.1540 35.7820 281° West 435 501 18,800 1,800 Climbing FlightAware ADS-B
Sun 03:54:32 AM 56.1680 35.6430 280° West 443 510 19,900 1,553 Climbing FlightAware ADS-B
Sun 03:55:17 AM 56.1840 35.4850 280° West 451 519 21,000 1,482 Climbing FlightAware ADS-B
Sun 03:55:57 AM 56.2000 35.3280 280° West 459 528 22,000 1,500 Climbing FlightAware ADS-B
Sun 03:56:37 AM 56.2150 35.1820 281° West 464 534 23,000 1,725 Climbing FlightAware ADS-B
Sun 03:57:17 AM 56.2290 35.0400 280° West 461 531 24,300 1,835 Climbing FlightAware ADS-B
Sun 03:58:02 AM 56.2460 34.8630 280° West 458 527 25,600 1,733 Climbing FlightAware ADS-B
Sun 03:58:47 AM 56.2620 34.6940 280° West 455 524 26,900 1,694 Climbing FlightAware ADS-B
Sun 03:59:27 AM 56.2760 34.5460 280° West 452 520 28,000 1,553 Climbing FlightAware ADS-B
Sun 04:00:12 AM 56.2920 34.3810 280° West 449 517 29,100 1,341 Climbing FlightAware ADS-B
Sun 04:00:52 AM 56.3050 34.2320 279° West 447 514 29,900 675 Climbing FlightAware ADS-B
Sun 04:01:32 AM 56.3190 34.0860 280° West 447 514 30,000 71 Climbing FlightAware ADS-B
Sun 04:02:17 AM 56.3330 33.9240 279° West 445 512 30,000  Level FlightAware ADS-B
Sun 04:02:57 AM 56.3460 33.7750 279° West 441 507 30,000  Level FlightAware ADS-B
Sun 04:03:37 AM 56.3580 33.6380 279° West 441 507 30,000  Level FlightAware ADS-B
Sun 04:04:22 AM 56.3720 33.4690 279° West 440 506 30,000  Level FlightAware ADS-B
Sun 04:05:02 AM 56.3840 33.3250 279° West 438 504 30,000  Level FlightAware ADS-B
Sun 04:05:47 AM 56.3970 33.1640 278° West 437 503 30,000  Level FlightAware ADS-B
Sun 04:06:22 AM 56.4070 33.0420 278° West 437 503 30,000  Level FlightAware ADS-B
Sun 04:07:07 AM 56.4200 32.8740 278° West 437 503 30,000  Level FlightAware ADS-B
Sun 04:07:52 AM 56.4330 32.7160 279° West 436 502 30,000  Level FlightAware ADS-B
Sun 04:08:32 AM 56.4440 32.5710 278° West 436 502 30,000  Level FlightAware ADS-B
Sun 04:09:22 AM 56.4560 32.3930 277° West 436 502 30,000  Level FlightAware ADS-B
Sun 04:10:12 AM 56.4670 32.2390 277° West 436 502 30,000  Level FlightAware ADS-B
Sun 04:10:52 AM 56.4750 32.1160 277° West 436 502 30,000  Level FlightAware ADS-B
Sun 04:11:32 AM 56.4830 31.9930 277° West 436 502 30,000  Level FlightAware ADS-B
Sun 04:12:12 AM 56.4920 31.8700 278° West 436 502 30,000  Level FlightAware ADS-B
Sun 04:12:52 AM 56.5000 31.7460 277° West 436 502 30,000  Level FlightAware ADS-B
Sun 04:15:00 AM 56.6530 31.3598 306° West  Level Estimated
Sun 04:16:00 AM 56.7242 31.1777 306° West  Level Estimated
Sun 04:17:00 AM 56.7954 30.9947 305° West  Level Estimated
Sun 04:18:00 AM 56.8662 30.8109 305° West  Level Estimated
Sun 04:19:00 AM 56.9368 30.6264 305° West  Level Estimated
Sun 04:20:00 AM 57.0071 30.4412 305° West  Level Estimated
Sun 04:21:00 AM 57.0772 30.2553 305° West  Level Estimated
Sun 04:22:00 AM 57.1469 30.0688 305° West  Level Estimated
Sun 04:23:00 AM 57.2164 29.8815 304° West  Level Estimated
Sun 04:24:00 AM 57.2856 29.6935 304° West  Level Estimated
Sun 04:25:00 AM 57.3546 29.5048 304° West  Level Estimated
Sun 04:26:00 AM 57.4232 29.3154 304° West  Level Estimated
Sun 04:27:00 AM 57.4916 29.1253 304° West  Level Estimated
Sun 04:27:27 AM 57.3090 29.0510 304° West 403 464 30,000  Level FlightAware ADS-B
Sun 04:28:07 AM 57.3500 28.9340 303° West 404 465 30,000  Level FlightAware ADS-B
Sun 04:28:47 AM 57.3910 28.8170 303° West 404 465 30,000  Level FlightAware ADS-B
Sun 04:29:32 AM 57.4350 28.6870 302° West 406 467 30,000  Level FlightAware ADS-B
Sun 04:30:12 AM 57.4740 28.5730 303° West 408 470 30,000  Level FlightAware ADS-B
Sun 04:30:57 AM 57.5210 28.4380 303° West 409 471 30,000  Level FlightAware ADS-B
Sun 04:31:37 AM 57.5580 28.3280 302° West 411 473 30,000  Level FlightAware ADS-B
Sun 04:32:22 AM 57.6060 28.1850 302° West 412 474 30,000  Level FlightAware ADS-B
Sun 04:33:02 AM 57.6470 28.0630 302° West 414 476 30,000  Level FlightAware ADS-B
Sun 04:33:42 AM 57.6880 27.9410 302° West 415 478 30,000  Level FlightAware ADS-B
Sun 04:34:27 AM 57.7340 27.8040 302° West 415 478 30,000  Level FlightAware ADS-B
Sun 04:35:07 AM 57.7740 27.6830 302° West 416 479 30,000  Level FlightAware ADS-B
Sun 04:35:47 AM 57.8150 27.5600 302° West 415 478 30,000  Level FlightAware ADS-B
Sun 04:36:32 AM 57.8480 27.4090 292° West 421 484 30,000  Level FlightAware ADS-B
Sun 04:37:12 AM 57.8750 27.2730 291° West 422 486 30,000  Level FlightAware ADS-B
Sun 04:37:57 AM 57.9060 27.1190 291° West 422 486 30,000  Level FlightAware ADS-B
Sun 04:38:37 AM 57.9320 26.9870 290° West 423 487 30,000  Level FlightAware ADS-B
Sun 04:39:22 AM 57.9650 26.8260 291° West 424 488 30,000  Level FlightAware ADS-B
Sun 04:40:02 AM 57.9920 26.6880 290° West 424 488 30,000  Level FlightAware ADS-B
Sun 04:40:47 AM 58.0220 26.5390 291° West 424 488 30,000  Level FlightAware ADS-B
Sun 04:41:32 AM 58.0530 26.3770 290° West 424 488 30,000  Level FlightAware ADS-B
Sun 04:42:12 AM 58.0800 26.2390 290° West 424 488 30,000  Level FlightAware ADS-B
Sun 04:42:52 AM 58.1070 26.0990 290° West 423 487 30,000  Level FlightAware ADS-B
Sun 04:43:32 AM 58.1320 25.9670 290° West 423 487 30,000  Level FlightAware ADS-B
Sun 04:44:17 AM 58.1630 25.8040 290° West 422 486 30,000  Level FlightAware ADS-B
Sun 04:45:02 AM 58.1920 25.6510 290° West 421 484 30,000  Level FlightAware ADS-B
Sun 04:45:42 AM 58.2180 25.5120 290° West 421 484 30,000  Level FlightAware ADS-B
Sun 04:46:22 AM 58.2440 25.3710 289° West 419 482 30,000  Level FlightAware ADS-B
Sun 04:47:07 AM 58.2730 25.2140 289° West 417 480 30,000  Level FlightAware ADS-B
Sun 04:47:47 AM 58.2970 25.0820 289° West 415 478 30,000  Level FlightAware ADS-B
Sun 04:48:32 AM 58.3260 24.9220 289° West 414 476 30,000  Level FlightAware ADS-B
Sun 04:49:12 AM 58.3510 24.7850 289° West 413 475 30,000  Level FlightAware ADS-B
Sun 04:49:52 AM 58.3760 24.6480 289° West 413 475 30,000  Level FlightAware ADS-B
Sun 04:50:37 AM 58.4030 24.4930 288° West 413 475 30,000  Level FlightAware ADS-B
Sun 04:51:17 AM 58.4260 24.3560 288° West 417 480 30,000  Level FlightAware ADS-B
Sun 04:52:02 AM 58.4500 24.1940 286° West 418 481 30,000  Level FlightAware ADS-B
Sun 04:52:42 AM 58.4710 24.0540 286° West 418 481 30,000  Level FlightAware ADS-B
Sun 04:53:22 AM 58.4920 23.9160 286° West 419 482 30,000  Level FlightAware ADS-B
Sun 04:54:07 AM 58.5170 23.7500 286° West 421 484 30,000  Level FlightAware ADS-B
Sun 04:54:47 AM 58.5380 23.6090 286° West 424 488 30,000  Level FlightAware ADS-B
Sun 04:55:27 AM 58.5600 23.4650 286° West 425 489 30,000  Level FlightAware ADS-B
Sun 04:56:12 AM 58.5840 23.3020 286° West 427 491 30,000  Level FlightAware ADS-B
Sun 04:56:52 AM 58.6050 23.1560 285° West 428 493 30,000  Level FlightAware ADS-B
Sun 04:57:37 AM 58.6280 22.9970 286° West 428 493 30,000  Level FlightAware ADS-B
Sun 04:58:17 AM 58.6490 22.8470 285° West 427 491 30,000  Level FlightAware ADS-B
Sun 04:59:02 AM 58.6720 22.6820 285° West 425 489 30,000  Level FlightAware ADS-B
Sun 04:59:42 AM 58.6930 22.5370 286° West 423 487 30,000  Level FlightAware ADS-B
Sun 05:00:22 AM 58.7130 22.3930 285° West 422 486 30,000  Level FlightAware ADS-B
Sun 05:01:07 AM 58.7350 22.2280 284° West 420 483 30,000  Level FlightAware ADS-B
Sun 05:01:47 AM 58.7550 22.0840 285° West 419 482 30,000  Level FlightAware ADS-B
Sun 05:02:27 AM 58.7740 21.9410 284° West 419 482 30,000  Level FlightAware ADS-B
Sun 05:03:12 AM 58.7960 21.7770 285° West 419 482 30,000  Level FlightAware ADS-B
Sun 05:03:52 AM 58.8150 21.6350 285° West 418 481 30,000  Level FlightAware ADS-B
Sun 05:04:32 AM 58.8340 21.4890 284° West 419 482 30,000  Level FlightAware ADS-B
Sun 05:05:17 AM 58.8550 21.3270 284° West 420 483 30,000  Level FlightAware ADS-B
Sun 05:05:57 AM 58.8730 21.1810 283° West 421 484 30,000  Level FlightAware ADS-B
Sun 05:06:42 AM 58.8940 21.0190 284° West 421 484 30,000  Level FlightAware ADS-B
Sun 05:07:22 AM 58.9190 20.8760 289° West 418 481 30,000  Level FlightAware ADS-B
Sun 05:08:07 AM 58.9610 20.7290 299° West 416 479 30,000  Level FlightAware ADS-B
Sun 05:08:47 AM 59.0020 20.6030 302° West 417 480 30,000  Level FlightAware ADS-B
Sun 05:09:27 AM 59.0410 20.4820 302° West 417 480 30,000  Level FlightAware ADS-B
Sun 05:10:12 AM 59.0870 20.3370 302° West 418 481 30,000  Level FlightAware ADS-B
Sun 05:10:52 AM 59.1280 20.2080 302° West 419 482 30,000  Level FlightAware ADS-B
Sun 05:11:37 AM 59.1740 20.0610 301° West 420 483 30,000  Level FlightAware ADS-B
Sun 05:12:17 AM 59.2150 19.9320 302° West 420 483 30,000  Level FlightAware ADS-B
Sun 05:12:57 AM 59.2550 19.8020 301° West 421 484 30,000  Level FlightAware ADS-B
Sun 05:13:42 AM 59.3010 19.6560 302° West 423 487 30,000  Level FlightAware ADS-B
Sun 05:14:22 AM 59.3380 19.5340 301° West 423 487 30,000  Level FlightAware ADS-B
Sun 05:15:02 AM 59.3810 19.3950 301° West 424 488 30,000  Level FlightAware ADS-B
Sun 05:15:47 AM 59.4260 19.2450 301° West 426 490 30,000  Level FlightAware ADS-B
Sun 05:16:27 AM 59.4660 19.1130 301° West 426 490 30,000  Level FlightAware ADS-B
Sun 05:17:12 AM 59.5110 18.9630 301° West 426 490 30,000  Level FlightAware ADS-B
Sun 05:17:52 AM 59.5510 18.8280 300° West 427 491 30,000  Level FlightAware ADS-B
Sun 05:18:37 AM 59.5960 18.6770 301° West 429 494 30,000  Level FlightAware ADS-B
Sun 05:19:17 AM 59.6330 18.5510 300° West 430 495 30,000  Level FlightAware ADS-B
Sun 05:19:52 AM 59.6670 18.4350 300° West 430 495 30,000  Level FlightAware ADS-B
Sun 05:20:42 AM 59.7190 18.2570 300° West 431 496 30,000  Level FlightAware ADS-B
Sun 05:21:22 AM 59.7620 18.1070 300° West 431 496 30,000  Level FlightAware ADS-B
Sun 05:22:02 AM 59.8010 17.9710 300° West 433 498 30,000  Level FlightAware ADS-B
Sun 05:22:47 AM 59.8450 17.8180 300° West 433 498 30,000  Level FlightAware ADS-B
Sun 05:23:27 AM 59.8840 17.6780 299° West 434 499 30,000  Level FlightAware ADS-B
Sun 05:24:12 AM 59.9300 17.5180 300° West 435 501 30,000  Level FlightAware ADS-B
Sun 05:24:52 AM 59.9690 17.3780 299° West 436 502 30,000  Level FlightAware ADS-B
Sun 05:25:37 AM 60.0120 17.2220 299° West 437 503 30,000  Level FlightAware ADS-B
Sun 05:26:17 AM 60.0500 17.0820 299° West 438 504 30,000  Level FlightAware ADS-B
Sun 05:26:57 AM 60.0890 16.9400 299° West 438 504 30,000  Level FlightAware ADS-B
Sun 05:27:42 AM 60.1340 16.7760 299° West 440 506 30,000  Level FlightAware ADS-B
Sun 05:28:22 AM 60.1730 16.6320 299° West 441 507 30,000  Level FlightAware ADS-B
Sun 05:29:02 AM 60.2110 16.4890 298° West 441 507 30,000  Level FlightAware ADS-B
Sun 05:29:47 AM 60.2540 16.3300 299° West 442 509 30,000  Level FlightAware ADS-B
Sun 05:30:27 AM 60.2930 16.1810 298° West 441 507 30,000  Level FlightAware ADS-B
Sun 05:31:12 AM 60.3350 16.0210 298° West 442 509 30,000  Level FlightAware ADS-B
Sun 05:31:52 AM 60.3720 15.8780 298° West 442 509 30,000  Level FlightAware ADS-B
Sun 05:32:37 AM 60.4150 15.7110 298° West 442 509 30,000  Level FlightAware ADS-B
Sun 05:33:17 AM 60.4530 15.5630 298° West 442 509 30,000  Level FlightAware ADS-B
Sun 05:33:57 AM 60.4890 15.4210 297° West 440 506 30,000  Level FlightAware ADS-B
Sun 05:34:37 AM 60.5270 15.2720 297° West 437 503 30,000  Level FlightAware ADS-B
Sun 05:35:17 AM 60.5650 15.1210 297° West 434 499 30,000  Level FlightAware ADS-B
Sun 05:35:57 AM 60.5990 14.9840 297° West 433 498 30,000  Level FlightAware ADS-B
Sun 05:36:42 AM 60.6390 14.8200 297° West 432 497 30,000  Level FlightAware ADS-B
Sun 05:37:22 AM 60.6750 14.6740 297° West 432 497 30,000  Level FlightAware ADS-B
Sun 05:38:02 AM 60.7110 14.5290 297° West 431 496 30,000  Level FlightAware ADS-B
Sun 05:38:47 AM 60.7510 14.3620 296° West 430 495 30,000  Level FlightAware ADS-B
Sun 05:39:27 AM 60.7850 14.2200 296° West 429 494 30,000  Level FlightAware ADS-B
Sun 05:40:07 AM 60.8210 14.0690 296° West 428 493 30,000  Level FlightAware ADS-B
Sun 05:40:52 AM 60.8590 13.9080 296° West 428 493 30,000  Level FlightAware ADS-B
Sun 05:41:32 AM 60.8940 13.7610 296° West 428 493 30,000  Level FlightAware ADS-B
Sun 05:42:17 AM 60.9320 13.5990 296° West 428 493 30,000  Level FlightAware ADS-B
Sun 05:42:57 AM 60.9630 13.4610 295° West 428 493 30,000  Level FlightAware ADS-B
Sun 05:43:52 AM 61.0090 13.2630 296° West 429 494 30,000  Level FlightAware ADS-B
Sun 05:44:32 AM 61.0440 13.1060 295° West 429 494 30,000  Level FlightAware ADS-B
Sun 05:45:32 AM 61.0940 12.8860 295° West 428 493 30,000  Level FlightAware ADS-B
Sun 05:46:12 AM 61.1300 12.7320 296° West 430 495 30,000  Level FlightAware ADS-B
Sun 05:46:47 AM 61.1640 12.6130 301° West 431 496 30,000  Level FlightAware ADS-B
Sun 05:47:32 AM 61.0940 12.8860 118° Southeast 30,000  Level FlightAware ADS-B
Sun 05:47:57 AM 61.2370 12.3740 300° West 432 497 30,000  Level FlightAware ADS-B
Sun 05:48:32 AM 61.2710 12.2600 302° West 432 497 30,000  Level FlightAware ADS-B
Sun 05:49:12 AM 61.3070 12.1410 302° West 432 497 30,000  Level FlightAware ADS-B
Sun 05:49:52 AM 61.3430 12.0200 302° West 432 497 30,000  Level FlightAware ADS-B
Sun 05:50:42 AM 61.3880 11.8700 302° West 432 497 30,000  Level FlightAware ADS-B
Sun 05:51:02 AM 61.0940 12.8860 121° Southeast 30,000  Level FlightAware ADS-B
Sun 05:51:22 AM 61.4550 11.6550 302° West 429 494 30,000  Level FlightAware ADS-B
Sun 05:52:02 AM 61.4950 11.5190 302° West 429 494 30,000  Level FlightAware ADS-B
Sun 05:52:47 AM 61.5460 11.3560 303° West 432 497 30,000  Level FlightAware ADS-B
Sun 05:53:27 AM 61.5930 11.2260 307° West 433 498 30,000  Level FlightAware ADS-B
Sun 05:54:07 AM 61.6440 11.0910 309° West 436 502 30,000  Level FlightAware ADS-B
Sun 05:54:52 AM 61.7010 10.9400 309° West 437 503 30,000  Level FlightAware ADS-B
Sun 05:55:32 AM 61.7510 10.8080 309° West 440 506 30,000  Level FlightAware ADS-B
Sun 05:56:17 AM 61.8060 10.6610 308° West 443 510 30,000  Level FlightAware ADS-B
Sun 05:56:57 AM 61.8580 10.5200 308° West 444 511 30,000  Level FlightAware ADS-B
Sun 05:57:37 AM 61.9050 10.3890 307° West 443 510 30,000  Level FlightAware ADS-B
Sun 05:58:22 AM 61.9630 10.2300 308° West 442 509 30,000  Level FlightAware ADS-B
Sun 05:59:02 AM 62.0130 10.0920 308° West 443 510 30,000 141 Level FlightAware ADS-B
Sun 05:59:47 AM 62.0700 9.9350 308° West 445 512 30,200 918 Climbing FlightAware ADS-B
Sun 06:00:27 AM 62.1170 9.8010 307° West 442 509 31,300 1,350 Climbing FlightAware ADS-B
Sun 06:01:07 AM 62.1680 9.6570 307° West 440 506 32,000 494 Climbing FlightAware ADS-B
Sun 06:01:52 AM 62.2260 9.4950 308° West 433 498 32,000  Level FlightAware ADS-B
Sun 06:02:32 AM 62.2740 9.3590 307° West 433 498 32,000  Level FlightAware ADS-B
Sun 06:03:17 AM 62.3280 9.2030 307° West 437 503 32,000  Level FlightAware ADS-B
Sun 06:03:57 AM 62.3760 9.0640 307° West 439 505 32,000  Level FlightAware ADS-B
Sun 06:04:37 AM 62.4270 8.9170 307° West 439 505 32,000  Level FlightAware ADS-B
Sun 06:05:17 AM 62.4740 8.7790 306° West 440 506 32,000  Level FlightAware ADS-B
Sun 06:06:02 AM 62.5270 8.6230 306° West 441 507 32,000  Level FlightAware ADS-B
Sun 06:06:47 AM 62.5810 8.4640 306° West 440 506 32,000  Level FlightAware ADS-B
Sun 06:07:17 AM 62.6190 8.3530 307° West 442 509 32,000  Level FlightAware ADS-B
Sun 06:08:07 AM 62.6780 8.1760 306° West 439 505 32,000  Level FlightAware ADS-B
Sun 06:08:52 AM 62.7350 8.0060 306° West 439 505 32,000  Level FlightAware ADS-B
Sun 06:09:32 AM 62.7770 7.8760 305° West 439 505 32,000  Level FlightAware ADS-B
Sun 06:10:12 AM 62.8290 7.7200 306° West 442 509 32,000  Level FlightAware ADS-B
Sun 06:10:52 AM 62.8730 7.5860 306° West 443 510 32,000  Level FlightAware ADS-B
Sun 06:11:37 AM 62.9300 7.4080 305° West 445 512 32,000  Level FlightAware ADS-B
Sun 06:12:22 AM 62.9820 7.2470 305° West 447 514 32,000  Level FlightAware ADS-B
Sun 06:13:02 AM 63.0310 7.0960 306° West 449 517 32,000  Level FlightAware ADS-B
Sun 06:13:42 AM 63.0780 6.9470 305° West 450 518 32,000  Level FlightAware ADS-B
Sun 06:14:22 AM 63.1270 6.7910 305° West 452 520 32,000  Level FlightAware ADS-B
Sun 06:15:07 AM 63.1750 6.6400 305° West 451 519 32,000  Level FlightAware ADS-B
Sun 06:15:52 AM 63.2290 6.4680 305° West 452 520 32,000  Level FlightAware ADS-B
Sun 06:16:47 AM 63.2930 6.2590 304° West 451 519 32,000  Level FlightAware ADS-B
Sun 06:17:27 AM 63.3400 6.1050 304° West 452 520 32,000  Level FlightAware ADS-B
Sun 06:18:12 AM 63.3940 5.9320 305° West 452 520 32,000  Level FlightAware ADS-B
Sun 06:19:07 AM 63.4600 5.7140 304° West 454 522 32,000  Level FlightAware ADS-B
Sun 06:19:47 AM 63.5080 5.5540 304° West 454 522 32,000  Level FlightAware ADS-B
Sun 06:20:27 AM 63.5520 5.4050 304° West 454 522 32,000  Level FlightAware ADS-B
Sun 06:21:27 AM 63.6200 5.1750 304° West 449 517 32,000  Level FlightAware ADS-B
Sun 06:22:22 AM 63.6840 4.9570 304° West 449 517 32,000  Level FlightAware ADS-B
Sun 06:23:07 AM 63.7390 4.7690 304° West 448 516 32,000  Level FlightAware ADS-B
Sun 06:23:42 AM 63.7760 4.6400 303° West 448 516 32,000  Level FlightAware ADS-B
Sun 06:24:22 AM 63.8210 4.4830 303° West 452 520 32,000  Level FlightAware ADS-B
Sun 06:25:12 AM 63.8790 4.2790 303° West 450 518 32,000  Level FlightAware ADS-B
Sun 06:25:52 AM 63.9240 4.1200 303° West 449 517 32,000  Level FlightAware ADS-B
Sun 06:26:27 AM 63.9590 3.9930 302° West 449 517 32,000  Level FlightAware ADS-B
Sun 06:27:12 AM 64.0110 3.8090 303° West 32,000  Level FlightAware ADS-B
Sun 06:27:52 AM 64.0420 3.6950 302° West 447 514 32,000  Level FlightAware ADS-B
Sun 06:28:42 AM 64.1030 3.4760 303° West 446 513 32,000  Level FlightAware ADS-B
Sun 06:29:22 AM 64.1400 3.3390 302° West 446 513 32,000  Level FlightAware ADS-B
Sun 06:30:02 AM 64.1770 3.2030 302° West 446 513 32,000  Level FlightAware ADS-B
Sun 06:30:32 AM 64.2050 3.1000 302° West 446 513 32,000  Level FlightAware ADS-B
Sun 06:31:12 AM 64.2420 2.9640 302° West 446 513 32,000  Level FlightAware ADS-B
Sun 06:31:52 AM 64.2790 2.8260 302° West 446 513 32,000  Level FlightAware ADS-B
Sun 06:32:42 AM 64.3260 2.6550 302° West 446 513 32,000  Level FlightAware ADS-B
Sun 06:33:22 AM 64.3630 2.5180 302° West 446 513 32,000  Level FlightAware ADS-B
Sun 06:34:02 AM 64.4000 2.3800 302° West 446 513 32,000  Level FlightAware ADS-B
Sun 06:34:42 AM 64.4370 2.2420 302° West 446 513 32,000  Level FlightAware ADS-B
Sun 06:35:22 AM 64.4740 2.1040 302° West 446 513 32,000  Level FlightAware ADS-B
Sun 06:36:12 AM 64.5210 1.9310 302° West 446 513 32,000  Level FlightAware ADS-B
Sun 06:36:52 AM 64.5580 1.7930 302° West 446 513 32,000  Level FlightAware ADS-B
Sun 06:37:32 AM 64.5950 1.6540 302° West 446 513 32,000 Level FlightAware ADS-B
Sun 06:40:00 AM 64.6368 0.9577 278° West  Level Estimated
Sun 06:41:00 AM 64.6528 0.6748 278° West  Level Estimated
Sun 06:42:00 AM 64.6683 0.3916 277° West  Level Estimated
Sun 06:43:00 AM 64.6833 0.1081 277° West  Level Estimated
Sun 06:44:00 AM 64.6977 -0.1758 277° West  Level Estimated
Sun 06:45:00 AM 64.7115 -0.4599 277° West  Level Estimated
Sun 06:46:00 AM 64.7248 -0.7443 276° West  Level Estimated
Sun 06:47:00 AM 64.7376 -1.0290 276° West  Level Estimated
Sun 06:48:00 AM 64.7498 -1.3140 276° West  Level Estimated
Sun 06:49:00 AM 64.7615 -1.5992 276° West  Level Estimated
Sun 06:50:00 AM 64.7726 -1.8846 275° West  Level Estimated
Sun 06:51:00 AM 64.7832 -2.1703 275° West  Level Estimated
Sun 06:52:00 AM 64.7932 -2.4562 275° West  Level Estimated
Sun 06:53:00 AM 64.8027 -2.7423 275° West  Level Estimated
Sun 06:54:00 AM 64.8116 -3.0286 274° West  Level Estimated
Sun 06:55:00 AM 64.8199 -3.3151 274° West  Level Estimated
Sun 06:56:00 AM 64.8278 -3.6017 274° West  Level Estimated
Sun 06:57:00 AM 64.8350 -3.8886 274° West  Level Estimated
Sun 06:58:00 AM 64.8417 -4.1755 273° West  Level Estimated
Sun 06:59:00 AM 64.8479 -4.4626 273° West  Level Estimated
Sun 07:00:00 AM 64.8535 -4.7498 273° West  Level Estimated
Sun 07:01:00 AM 64.8585 -5.0372 272° West  Level Estimated
Sun 07:02:00 AM 64.8630 -5.3246 272° West  Level Estimated
Sun 07:03:00 AM 64.8670 -5.6122 272° West  Level Estimated
Sun 07:04:00 AM 64.8704 -5.8998 272° West  Level Estimated
Sun 07:05:00 AM 64.8732 -6.1874 271° West  Level Estimated
Sun 07:06:00 AM 64.8755 -6.4752 271° West  Level Estimated
Sun 07:07:00 AM 64.8772 -6.7630 271° West  Level Estimated
Sun 07:08:00 AM 64.8784 -7.0508 271° West  Level Estimated
Sun 07:09:00 AM 64.8790 -7.3386 270° West  Level Estimated
Sun 07:10:00 AM 64.8790 -7.6264 270° West  Level Estimated
Sun 07:11:00 AM 64.8785 -7.9143 270° West  Level Estimated
Sun 07:12:00 AM 64.8775 -8.2021 270° West  Level Estimated
Sun 07:13:00 AM 64.8758 -8.4899 269° West  Level Estimated
Sun 07:14:00 AM 64.8737 -8.7776 269° West  Level Estimated
Sun 07:15:00 AM 64.8709 -9.0653 269° West  Level Estimated
Sun 07:16:00 AM 64.8677 -9.3529 269° West  Level Estimated
Sun 07:17:00 AM 64.8638 -9.6405 268° West  Level Estimated
Sun 07:18:00 AM 64.8594 -9.9279 268° West  Level Estimated
Sun 07:19:00 AM 64.8545 -10.2153 268° West  Level Estimated
Sun 07:20:00 AM 64.8490 -10.5030 268° West  Level Estimated
Sun 07:21:00 AM 64.8429 -10.7906 267° West  Level Estimated
Sun 07:22:00 AM 64.8363 -11.0781 267° West  Level Estimated
Sun 07:23:00 AM 64.8291 -11.3654 267° West  Level Estimated
Sun 07:24:00 AM 64.8214 -11.6526 267° West  Level Estimated
Sun 07:25:00 AM 64.8131 -11.9396 266° West  Level Estimated
Sun 07:26:00 AM 64.8043 -12.2264 266° West  Level Estimated
Sun 07:27:00 AM 64.7949 -12.5130 266° West  Level Estimated
Sun 07:28:00 AM 64.7850 -12.7994 265° West  Level Estimated
Sun 07:29:00 AM 64.7745 -13.0856 265° West  Level Estimated
Sun 07:30:00 AM 64.7634 -13.3715 265° West  Level Estimated
Sun 07:31:00 AM 64.7518 -13.6573 265° West  Level Estimated
Sun 07:32:00 AM 64.7397 -13.9427 264° West  Level Estimated
Sun 07:33:00 AM 64.7270 -14.2280 264° West  Level Estimated
Sun 07:34:00 AM 64.7138 -14.5129 264° West  Level Estimated
Sun 07:35:00 AM 64.7000 -14.7975 264° West  Level Estimated
Sun 07:36:00 AM 64.6857 -15.0819 263° West  Level Estimated
Sun 07:37:00 AM 64.6708 -15.3659 263° West  Level Estimated
Sun 07:38:00 AM 64.6554 -15.6497 263° West  Level Estimated
Sun 07:39:00 AM 64.6394 -15.9331 263° West  Level Estimated
Sun 07:40:00 AM 64.6229 -16.2162 262° West  Level Estimated
Sun 07:41:00 AM 64.6059 -16.4989 262° West  Level Estimated
Sun 07:42:00 AM 64.5883 -16.7812 262° West  Level Estimated
Sun 07:43:00 AM 64.5702 -17.0632 262° West  Level Estimated
Sun 07:44:00 AM 64.5515 -17.3449 261° West  Level Estimated
Sun 07:45:00 AM 64.5323 -17.6261 261° West  Level Estimated
Sun 07:46:00 AM 64.5126 -17.9069 261° West  Level Estimated
Sun 07:47:00 AM 64.4923 -18.1873 261° West  Level Estimated
Sun 07:48:00 AM 64.4715 -18.4673 260° West  Level Estimated
Sun 07:49:00 AM 64.4502 -18.7468 260° West  Level Estimated
Sun 07:50:00 AM 64.4283 -19.0260 260° West  Level Estimated
Sun 07:51:00 AM 64.4059 -19.3046 260° West  Level Estimated
Sun 07:52:00 AM 64.3830 -19.5828 259° West  Level Estimated
Sun 07:53:00 AM 64.3596 -19.8601 259° West  Level Estimated
Sun 07:54:00 AM 64.3357 -20.1369 259° West  Level Estimated
Sun 07:55:00 AM 64.3112 -20.4132 259° West  Level Estimated
Sun 07:56:00 AM 64.2863 -20.6891 258° West  Level Estimated
Sun 07:57:00 AM 64.2608 -20.9644 258° West  Level Estimated
Sun 07:58:00 AM 64.2348 -21.2392 258° West  Level Estimated
Sun 07:59:00 AM 64.2083 -21.5135 258° West  Level Estimated
Sun 08:00:00 AM 64.1812 -21.7872 257° West  Level Estimated
Sun 08:01:00 AM 64.1537 -22.0604 257° West  Level Estimated
Sun 08:02:00 AM 64.1256 -22.3331 257° West  Level Estimated
Sun 08:03:00 AM 64.0971 -22.6052 257° West  Level Estimated
Sun 08:04:00 AM 64.0680 -22.8767 256° West  Level Estimated
Sun 08:05:00 AM 64.0385 -23.1477 256° West  Level Estimated
Sun 08:06:00 AM 64.0084 -23.4181 256° West  Level Estimated
Sun 08:07:00 AM 63.9778 -23.6879 256° West  Level Estimated
Sun 08:08:00 AM 63.9467 -23.9571 255° West  Level Estimated
Sun 08:09:00 AM 63.9151 -24.2258 255° West  Level Estimated
Sun 08:10:00 AM 63.8831 -24.4938 255° West  Level Estimated
Sun 08:11:00 AM 63.8505 -24.7612 255° West  Level Estimated
Sun 08:12:00 AM 63.8175 -25.0279 254° West  Level Estimated
Sun 08:13:00 AM 63.7839 -25.2941 254° West  Level Estimated
Sun 08:14:00 AM 63.7499 -25.5596 254° West  Level Estimated
Sun 08:15:00 AM 63.7154 -25.8244 254° West  Level Estimated
Sun 08:16:00 AM 63.6803 -26.0886 253° West  Level Estimated
Sun 08:17:00 AM 63.6449 -26.3522 253° West  Level Estimated
Sun 08:18:00 AM 63.6089 -26.6151 253° West  Level Estimated
Sun 08:19:00 AM 63.5724 -26.8773 253° West  Level Estimated
Sun 08:20:00 AM 63.5355 -27.1389 253° West  Level Estimated
Sun 08:21:00 AM 63.4981 -27.3997 252° West  Level Estimated
Sun 08:22:00 AM 63.4602 -27.6599 252° West  Level Estimated
Sun 08:23:00 AM 63.4219 -27.9194 252° West  Level Estimated
Sun 08:24:00 AM 63.3830 -28.1782 252° West  Level Estimated
Sun 08:25:00 AM 63.3438 -28.4363 251° West  Level Estimated
Sun 08:26:00 AM 63.3040 -28.6936 251° West  Level Estimated
Sun 08:27:00 AM 63.2638 -28.9503 251° West  Level Estimated
Sun 08:28:00 AM 63.2231 -29.2063 251° West  Level Estimated
Sun 08:29:00 AM 63.1820 -29.4615 250° West  Level Estimated
Sun 08:30:00 AM 63.1404 -29.7160 250° West  Level Estimated
Sun 08:31:00 AM 63.0984 -29.9697 250° West  Level Estimated
Sun 08:32:00 AM 63.0559 -30.2228 250° West  Level Estimated
Sun 08:33:00 AM 63.0130 -30.4750 250° West  Level Estimated
Sun 08:34:00 AM 62.9696 -30.7266 249° West  Level Estimated
Sun 08:35:00 AM 62.9257 -30.9774 249° West  Level Estimated
Sun 08:36:00 AM 62.8814 -31.2274 249° West  Level Estimated
Sun 08:37:00 AM 62.8367 -31.4767 249° West  Level Estimated
Sun 08:38:00 AM 62.7916 -31.7252 248° West  Level Estimated
Sun 08:39:00 AM 62.7460 -31.9730 248° West  Level Estimated
Sun 08:40:00 AM 62.6999 -32.2200 248° West  Level Estimated
Sun 08:41:00 AM 62.6535 -32.4662 248° West  Level Estimated
Sun 08:42:00 AM 62.6066 -32.7116 248° West  Level Estimated
Sun 08:43:00 AM 62.5593 -32.9563 247° West  Level Estimated
Sun 08:44:00 AM 62.5115 -33.2001 247° West  Level Estimated
Sun 08:45:00 AM 62.4633 -33.4432 247° West  Level Estimated
Sun 08:46:00 AM 62.4147 -33.6856 247° West  Level Estimated
Sun 08:47:00 AM 62.3657 -33.9271 246° West  Level Estimated
Sun 08:48:00 AM 62.3163 -34.1678 246° West  Level Estimated
Sun 08:49:00 AM 62.2665 -34.4077 246° West  Level Estimated
Sun 08:50:00 AM 62.2162 -34.6469 246° West  Level Estimated
Sun 08:51:00 AM 62.1655 -34.8852 246° West  Level Estimated
Sun 08:52:00 AM 62.1144 -35.1228 245° Southwest  Level Estimated
Sun 08:53:00 AM 62.0630 -35.3595 245° Southwest  Level Estimated
Sun 08:54:00 AM 62.0111 -35.5954 245° Southwest  Level Estimated
Sun 08:55:00 AM 61.9588 -35.8306 245° Southwest  Level Estimated
Sun 08:56:00 AM 61.9061 -36.0649 245° Southwest  Level Estimated
Sun 08:57:00 AM 61.8530 -36.2984 244° Southwest  Level Estimated
Sun 08:58:00 AM 61.7995 -36.5311 244° Southwest  Level Estimated
Sun 08:59:00 AM 61.7457 -36.7630 244° Southwest  Level Estimated
Sun 09:00:00 AM 61.6915 -36.9937 244° Southwest  Level Estimated
Sun 09:01:00 AM 61.6369 -37.2236 244° Southwest  Level Estimated
Sun 09:02:00 AM 61.5820 -37.4527 243° Southwest  Level Estimated
Sun 09:03:00 AM 61.5267 -37.6809 243° Southwest  Level Estimated
Sun 09:04:00 AM 61.4710 -37.9084 243° Southwest  Level Estimated
Sun 09:05:00 AM 61.4149 -38.1350 243° Southwest  Level Estimated
Sun 09:06:00 AM 61.3585 -38.3608 243° Southwest  Level Estimated
Sun 09:07:00 AM 61.3016 -38.5858 242° Southwest  Level Estimated
Sun 09:08:00 AM 61.2444 -38.8100 242° Southwest  Level Estimated
Sun 09:09:00 AM 61.1869 -39.0334 242° Southwest  Level Estimated
Sun 09:10:00 AM 61.1289 -39.2559 242° Southwest  Level Estimated
Sun 09:11:00 AM 61.0706 -39.4776 242° Southwest  Level Estimated
Sun 09:12:00 AM 61.0120 -39.6986 241° Southwest  Level Estimated
Sun 09:13:00 AM 60.9529 -39.9187 241° Southwest  Level Estimated
Sun 09:14:00 AM 60.8936 -40.1380 241° Southwest  Level Estimated
Sun 09:15:00 AM 60.8338 -40.3564 241° Southwest  Level Estimated
Sun 09:16:00 AM 60.7738 -40.5741 241° Southwest  Level Estimated
Sun 09:17:00 AM 60.7133 -40.7909 240° Southwest  Level Estimated
Sun 09:18:00 AM 60.6525 -41.0069 240° Southwest  Level Estimated
Sun 09:19:00 AM 60.5914 -41.2221 240° Southwest  Level Estimated
Sun 09:20:00 AM 60.5299 -41.4365 240° Southwest  Level Estimated
Sun 09:21:00 AM 60.4681 -41.6501 240° Southwest  Level Estimated
Sun 09:22:00 AM 60.4059 -41.8628 239° Southwest  Level Estimated
Sun 09:23:00 AM 60.3434 -42.0747 239° Southwest  Level Estimated
Sun 09:24:00 AM 60.2811 -42.2844 239° Southwest  Level Estimated
Sun 09:25:00 AM 60.2183 -42.4932 239° Southwest  Level Estimated
Sun 09:26:00 AM 60.1553 -42.7012 239° Southwest  Level Estimated
Sun 09:27:00 AM 60.0920 -42.9084 239° Southwest  Level Estimated
Sun 09:28:00 AM 60.0283 -43.1148 238° Southwest  Level Estimated
Sun 09:29:00 AM 59.9643 -43.3204 238° Southwest  Level Estimated
Sun 09:30:00 AM 59.9000 -43.5253 238° Southwest  Level Estimated
Sun 09:31:00 AM 59.8353 -43.7293 238° Southwest  Level Estimated
Sun 09:32:00 AM 59.7704 -43.9325 238° Southwest  Level Estimated
Sun 09:33:00 AM 59.7051 -44.1350 237° Southwest  Level Estimated
Sun 09:34:00 AM 59.6421 -44.3287 237° Southwest  Level Estimated
Sun 09:35:00 AM 59.5788 -44.5218 237° Southwest  Level Estimated
Sun 09:36:00 AM 59.5153 -44.7141 237° Southwest  Level Estimated
Sun 09:37:00 AM 59.4514 -44.9056 237° Southwest  Level Estimated
Sun 09:38:00 AM 59.3873 -45.0965 237° Southwest  Level Estimated
Sun 09:39:00 AM 59.3229 -45.2866 236° Southwest  Level Estimated
Sun 09:40:00 AM 59.2583 -45.4760 236° Southwest  Level Estimated
Sun 09:41:00 AM 59.1933 -45.6647 236° Southwest  Level Estimated
Sun 09:42:00 AM 59.1281 -45.8527 236° Southwest  Level Estimated
Sun 09:43:00 AM 59.0626 -46.0399 236° Southwest  Level Estimated
Sun 09:44:00 AM 58.9968 -46.2265 236° Southwest  Level Estimated
Sun 09:45:00 AM 58.9308 -46.4123 236° Southwest  Level Estimated
Sun 09:46:00 AM 58.8645 -46.5974 235° Southwest  Level Estimated
Sun 09:47:00 AM 58.7980 -46.7818 235° Southwest  Level Estimated
Sun 09:48:00 AM 58.7311 -46.9655 235° Southwest  Level Estimated
Sun 09:49:00 AM 58.6641 -47.1485 235° Southwest  Level Estimated
Sun 09:50:00 AM 58.5967 -47.3308 235° Southwest  Level Estimated
Sun 09:51:00 AM 58.5291 -47.5124 235° Southwest  Level Estimated
Sun 09:52:00 AM 58.4613 -47.6933 234° Southwest  Level Estimated
Sun 09:53:00 AM 58.3932 -47.8735 234° Southwest  Level Estimated
Sun 09:53:16 AM 65.0500 -55.3667 233° Southwest 440 506 33,000  Level Gander Center
Sun 09:54:00 AM 58.3248 -48.0530 234° Southwest  Level Estimated
Sun 09:54:16 AM 65.0000 -55.6500 247° West 440 506 33,000  Level Gander Center
Sun 09:55:00 AM 58.2562 -48.2318 234° Southwest  Level Estimated
Sun 09:55:16 AM 64.9667 -55.9000 253° West 440 506 33,000  Level Gander Center
Sun 09:56:00 AM 58.1874 -48.4099 234° Southwest  Level Estimated
Sun 09:56:16 AM 64.9000 -56.1500 238° Southwest 440 506 33,000  Level Gander Center
Sun 09:56:39 AM 64.8833 -56.2667 251° West 440 506 33,000  Level Gander Center
Sun 09:57:00 AM 58.1183 -48.5873 234° Southwest  Level Estimated
Sun 09:57:15 AM 64.8167 -56.3167 198° South 450 518 33,000  Level Montreal Center
Sun 09:57:39 AM 64.8333 -56.5000 282° West 430 495 33,000  Level Gander Center
Sun 09:58:00 AM 58.0489 -48.7640 233° Southwest  Level Estimated
Sun 09:58:39 AM 64.7667 -56.7500 238° Southwest 430 495 33,000  Level Gander Center
Sun 09:59:16 AM 64.7500 -56.9500 259° West 440 506 33,000  Level Gander Center
Sun 10:00:16 AM 64.6833 -57.1500 232° Southwest 440 506 33,000  Level Gander Center
Sun 10:01:16 AM 64.6333 -57.3833 244° Southwest 430 495 33,000  Level Gander Center
Sun 10:02:15 AM 64.5333 -57.5167 210° Southwest 430 495 33,000  Level Montreal Center
Sun 10:02:39 AM 64.5167 -57.6333 252° West 420 483 33,000  Level Gander Center
Sun 10:03:39 AM 64.4000 -57.8333 217° Southwest 450 518 33,000 500 Level Gander Center
Sun 10:04:39 AM 64.3000 -57.9667 210° Southwest 440 506 34,000 500 Climbing Gander Center
Sun 10:05:39 AM 64.2167 -58.1333 221° Southwest 430 495 34,000  Level Gander Center
Sun 10:06:15 AM 64.1500 -58.1667 192° South 430 495 34,000  Level Montreal Center
Sun 10:07:15 AM 64.0667 -58.3000 215° Southwest 430 495 34,000  Level Montreal Center
Sun 10:08:15 AM 63.9500 -58.4500 209° Southwest 420 483 34,000  Level Montreal Center
Sun 10:09:16 AM 63.8500 -58.7000 228° Southwest 430 495 34,000  Level Gander Center
Sun 10:10:16 AM 63.7667 -58.8500 219° Southwest 430 495 34,000  Level Gander Center
Sun 10:11:16 AM 63.6667 -59.0000 214° Southwest 430 495 34,000  Level Gander Center
Sun 10:12:16 AM 63.5667 -59.1333 211° Southwest 430 495 34,000  Level Gander Center
Sun 10:13:16 AM 63.4667 -59.2833 214° Southwest 430 495 34,000  Level Gander Center
Sun 10:14:16 AM 63.3500 -59.4333 210° Southwest 440 506 34,000  Level Gander Center
Sun 10:15:16 AM 63.2667 -59.5833 219° Southwest 440 506 34,000  Level Gander Center
Sun 10:16:16 AM 63.1667 -59.7500 217° Southwest 430 495 34,000  Level Gander Center
Sun 10:17:15 AM 63.0667 -59.8000 193° South 430 495 34,000  Level Montreal Center
Sun 10:17:39 AM 63.0333 -59.9333 241° Southwest 430 495 34,000  Level Gander Center
Sun 10:18:39 AM 62.9333 -60.0833 214° Southwest 430 495 34,000  Level Gander Center
Sun 10:19:15 AM 62.8667 -60.1000 187° South 430 495 34,000  Level Montreal Center
Sun 10:20:15 AM 62.7667 -60.2333 211° Southwest 430 495 34,000  Level Montreal Center
Sun 10:20:39 AM 62.7333 -60.3833 244° Southwest 430 495 34,000  Level Gander Center
Sun 10:21:39 AM 62.6333 -60.5333 215° Southwest 430 495 34,000  Level Gander Center
Sun 10:22:15 AM 62.5667 -60.5167 173° South 420 483 34,000  Level Montreal Center
Sun 10:23:15 AM 62.4667 -60.6333 208° Southwest 420 483 34,000  Level Montreal Center
Sun 10:24:15 AM 62.3667 -60.8000 218° Southwest 430 495 34,000  Level Montreal Center
Sun 10:25:16 AM 62.2667 -61.0000 223° Southwest 430 495 34,000  Level Gander Center
Sun 10:26:16 AM 62.1833 -61.1333 217° Southwest 430 495 34,000  Level Gander Center
Sun 10:26:39 AM 62.1500 -61.2167 229° Southwest 430 495 34,000  Level Gander Center
Sun 10:27:15 AM 62.0667 -61.2000 175° South 430 495 34,000  Level Montreal Center
Sun 10:28:15 AM 61.9667 -61.3667 218° Southwest 430 495 34,000  Level Montreal Center
Sun 10:29:15 AM 61.8667 -61.4833 209° Southwest 430 495 34,000  Level Montreal Center
Sun 10:30:15 AM 61.7667 -61.6000 209° Southwest 430 495 34,000  Level Montreal Center
Sun 10:31:15 AM 61.6667 -61.7500 215° Southwest 430 495 34,000  Level Montreal Center
Sun 10:31:39 AM 61.6333 -61.8833 242° Southwest 430 495 34,000  Level Gander Center
Sun 10:32:16 AM 61.5667 -61.9500 205° Southwest 430 495 34,000  Level Gander Center
Sun 10:33:16 AM 61.4667 -62.0833 213° Southwest 430 495 34,000  Level Gander Center
Sun 10:34:16 AM 61.3667 -62.1833 206° Southwest 430 495 34,000  Level Gander Center
Sun 10:35:16 AM 61.2667 -62.3500 219° Southwest 430 495 34,000  Level Gander Center
Sun 10:35:39 AM 61.2167 -62.3833 198° South 430 495 34,000  Level Gander Center
Sun 10:36:16 AM 61.1667 -62.4833 224° Southwest 440 506 34,000  Level Gander Center
Sun 10:37:16 AM 61.0667 -62.5833 206° Southwest 440 506 34,000  Level Gander Center
Sun 10:38:16 AM 60.9500 -62.6833 203° Southwest 440 506 34,000  Level Gander Center
Sun 10:39:15 AM 60.8500 -62.7833 206° Southwest 430 495 34,000  Level Montreal Center
Sun 10:40:15 AM 60.7500 -62.9167 213° Southwest 430 495 34,000  Level Montreal Center
Sun 10:41:15 AM 60.6333 -63.0333 206° Southwest 430 495 34,000  Level Montreal Center
Sun 10:41:39 AM 60.6000 -63.1500 240° Southwest 430 495 34,000  Level Gander Center
Sun 10:42:39 AM 60.5000 -63.2667 210° Southwest 430 495 34,000  Level Gander Center
Sun 10:43:39 AM 60.4000 -63.4000 213° Southwest 430 495 34,000  Level Gander Center
Sun 10:44:15 AM 60.3333 -63.4333 194° South 430 495 34,000  Level Montreal Center
Sun 10:45:15 AM 60.2333 -63.5333 206° Southwest 430 495 34,000  Level Montreal Center
Sun 10:46:15 AM 60.1333 -63.6333 206° Southwest 430 495 34,000  Level Montreal Center
Sun 10:47:15 AM 60.0333 -63.7833 217° Southwest 430 495 34,000  Level Montreal Center
Sun 10:48:15 AM 59.9333 -63.8833 207° Southwest 430 495 34,000  Level Montreal Center
Sun 10:49:16 AM 59.8000 -64.0667 215° Southwest 430 495 34,000  Level Gander Center
Sun 10:50:16 AM 59.7167 -64.1833 215° Southwest 430 495 34,000 -50 Level Gander Center
Sun 10:51:16 AM 59.6000 -64.3000 207° Southwest 430 495 33,900  Descending Gander Center
Sun 10:52:16 AM 59.5000 -64.4333 214° Southwest 430 495 34,000 50 Climbing Gander Center
Sun 10:53:15 AM 59.4000 -64.4667 190° South 420 483 34,000  Level Montreal Center
Sun 10:54:15 AM 59.3000 -64.6000 214° Southwest 430 495 34,000  Level Montreal Center
Sun 10:55:15 AM 59.1833 -64.7000 204° Southwest 430 495 34,000  Level Montreal Center
Sun 10:55:39 AM 59.1500 -64.8167 241° Southwest 440 506 34,000  Level Gander Center
Sun 10:56:16 AM 59.0833 -64.8833 207° Southwest 440 506 34,000  Level Gander Center
Sun 10:57:16 AM 58.9833 -65.0000 211° Southwest 440 506 34,000  Level Gander Center
Sun 10:58:16 AM 58.8833 -65.1167 211° Southwest 440 506 34,000  Level Gander Center
Sun 10:59:15 AM 58.7667 -65.1667 193° South 430 495 34,000  Level Montreal Center
Sun 11:00:15 AM 58.6833 -65.2667 212° Southwest 430 495 34,000  Level Montreal Center
Sun 11:01:15 AM 58.5667 -65.3833 208° Southwest 440 506 34,000  Level Montreal Center
Sun 11:02:15 AM 58.4333 -65.5000 205° Southwest 430 495 34,000  Level Montreal Center
Sun 11:03:15 AM 58.3500 -65.6167 216° Southwest 440 506 34,000  Level Montreal Center
Sun 11:04:15 AM 58.2333 -65.7167 204° Southwest 430 495 34,000  Level Montreal Center
Sun 11:05:15 AM 58.1333 -65.8333 212° Southwest 430 495 34,000  Level Montreal Center
Sun 11:06:15 AM 58.0167 -65.9333 204° Southwest 430 495 34,000  Level Montreal Center
Sun 11:07:15 AM 57.9333 -66.0500 217° Southwest 430 495 34,000  Level Montreal Center
Sun 11:08:15 AM 57.8167 -66.1500 205° Southwest 430 495 34,000  Level Montreal Center
Sun 11:09:15 AM 57.7000 -66.2500 205° Southwest 430 495 34,000  Level Montreal Center
Sun 11:10:15 AM 57.6000 -66.3667 212° Southwest 430 495 34,000  Level Montreal Center
Sun 11:11:15 AM 57.5000 -66.4500 204° Southwest 430 495 34,000  Level Montreal Center
Sun 11:12:15 AM 57.3833 -66.5833 212° Southwest 430 495 34,000  Level Montreal Center
Sun 11:13:15 AM 57.2833 -66.6667 204° Southwest 430 495 34,000  Level Montreal Center
Sun 11:14:15 AM 57.1833 -66.7500 204° Southwest 430 495 34,000  Level Montreal Center
Sun 11:15:15 AM 57.0667 -66.8667 209° Southwest 430 495 34,000  Level Montreal Center
Sun 11:16:15 AM 56.9667 -66.9667 209° Southwest 430 495 34,000  Level Montreal Center
Sun 11:17:16 AM 56.8500 -67.1500 221° Southwest 440 506 34,000  Level Gander Center
Sun 11:18:16 AM 56.7500 -67.2167 200° South 430 495 34,000  Level Gander Center
Sun 11:19:16 AM 56.6333 -67.3167 205° Southwest 430 495 34,000  Level Gander Center
Sun 11:20:15 AM 56.5333 -67.3667 195° South 430 495 34,000  Level Montreal Center
Sun 11:21:15 AM 56.4167 -67.4833 209° Southwest 430 495 34,000  Level Montreal Center
Sun 11:22:15 AM 56.3167 -67.5667 205° Southwest 430 495 34,000  Level Montreal Center
Sun 11:23:15 AM 56.2167 -67.6833 213° Southwest 430 495 34,000  Level Montreal Center
Sun 11:24:15 AM 56.1000 -67.7667 202° Southwest 430 495 34,000  Level Montreal Center
Sun 11:25:15 AM 55.9833 -67.8500 202° Southwest 430 495 34,000  Level Montreal Center
Sun 11:26:15 AM 55.9000 -67.9667 218° Southwest 430 495 34,000  Level Montreal Center
Sun 11:27:15 AM 55.7833 -68.0500 202° Southwest 430 495 34,000  Level Montreal Center
Sun 11:28:15 AM 55.6667 -68.1667 209° Southwest 430 495 34,000  Level Montreal Center
Sun 11:29:15 AM 55.5667 -68.2333 201° Southwest 430 495 34,000  Level Montreal Center
Sun 11:30:15 AM 55.4667 -68.3500 213° Southwest 430 495 34,000  Level Montreal Center
Sun 11:31:15 AM 55.3500 -68.4333 202° Southwest 430 495 34,000  Level Montreal Center
Sun 11:32:15 AM 55.2333 -68.5500 210° Southwest 430 495 34,000  Level Montreal Center
Sun 11:33:15 AM 55.1167 -68.6167 198° South 430 495 34,000  Level Montreal Center
Sun 11:34:15 AM 55.0333 -68.7333 219° Southwest 430 495 34,000  Level Montreal Center
Sun 11:35:15 AM 54.9167 -68.8000 198° South 430 495 34,000  Level Montreal Center
Sun 11:36:15 AM 54.8000 -68.8833 202° Southwest 430 495 34,000  Level Montreal Center
Sun 11:37:15 AM 54.6833 -69.0000 210° Southwest 430 495 34,000  Level Montreal Center
Sun 11:38:15 AM 54.5667 -69.0667 198° South 430 495 34,000  Level Montreal Center
Sun 11:39:15 AM 54.4833 -69.1667 215° Southwest 430 495 34,000  Level Montreal Center
Sun 11:40:16 AM 54.3500 -69.3000 210° Southwest 440 506 34,000  Level Gander Center
Sun 11:41:16 AM 54.2500 -69.3833 206° Southwest 440 506 34,000  Level Gander Center
Sun 11:42:15 AM 54.1333 -69.4333 194° South 430 495 34,000  Level Montreal Center
Sun 11:43:15 AM 54.0500 -69.5333 215° Southwest 430 495 34,000  Level Montreal Center
Sun 11:44:15 AM 53.9333 -69.6167 203° Southwest 440 506 34,000  Level Montreal Center
Sun 11:45:15 AM 53.8167 -69.7167 207° Southwest 430 495 34,000  Level Montreal Center
Sun 11:46:16 AM 53.7000 -69.8167 207° Southwest 430 495 34,000  Level Gander Center
Sun 11:47:15 AM 53.6000 -69.8500 191° South 430 495 34,000  Level Montreal Center
Sun 11:48:16 AM 53.4833 -70.0000 217° Southwest 430 495 34,000  Level Gander Center
Sun 11:49:16 AM 53.3833 -70.1000 211° Southwest 430 495 34,000  Level Gander Center
Sun 11:50:16 AM 53.2667 -70.1833 203° Southwest 440 506 34,000  Level Gander Center
Sun 11:51:16 AM 53.1667 -70.2500 202° Southwest 440 506 34,000  Level Gander Center
Sun 11:52:16 AM 53.0500 -70.3333 203° Southwest 440 506 34,000  Level Gander Center
Sun 11:53:15 AM 52.9333 -70.3667 190° South 430 495 34,000  Level Montreal Center
Sun 11:54:15 AM 52.8167 -70.4667 207° Southwest 430 495 34,000  Level Montreal Center
Sun 11:55:15 AM 52.7167 -70.5500 207° Southwest 430 495 34,000  Level Montreal Center
Sun 11:56:15 AM 52.6000 -70.6333 203° Southwest 430 495 34,000  Level Montreal Center
Sun 11:57:15 AM 52.5000 -70.7000 202° Southwest 430 495 34,000  Level Montreal Center
Sun 11:58:15 AM 52.3833 -70.8000 208° Southwest 430 495 34,000  Level Montreal Center
Sun 11:59:15 AM 52.2667 -70.8667 199° South 430 495 34,000  Level Montreal Center
Sun 12:00:15 PM 52.1500 -70.9667 208° Southwest 430 495 34,000  Level Montreal Center
Sun 12:01:15 PM 52.0500 -71.0333 202° Southwest 430 495 34,000  Level Montreal Center
Sun 12:02:15 PM 51.9500 -71.1333 212° Southwest 430 495 34,000  Level Montreal Center
Sun 12:03:15 PM 51.8333 -71.2000 199° South 430 495 34,000  Level Montreal Center
Sun 12:04:15 PM 51.7167 -71.2667 199° South 430 495 34,000  Level Montreal Center
Sun 12:05:15 PM 51.6000 -71.3500 204° Southwest 430 495 34,000  Level Montreal Center
Sun 12:06:15 PM 51.5000 -71.4167 203° Southwest 440 506 34,000  Level Montreal Center
Sun 12:07:15 PM 51.3833 -71.5167 208° Southwest 440 506 34,000  Level Montreal Center
Sun 12:08:15 PM 51.2667 -71.5833 200° South 440 506 34,000  Level Montreal Center
Sun 12:09:15 PM 51.1500 -71.6667 204° Southwest 440 506 34,000  Level Montreal Center
Sun 12:10:15 PM 51.0333 -71.7000 190° South 440 506 34,000  Level Montreal Center
Sun 12:11:15 PM 50.9167 -71.7500 195° South 440 506 34,000  Level Montreal Center
Sun 12:12:15 PM 50.7833 -71.8167 198° South 440 506 34,000  Level Montreal Center
Sun 12:13:15 PM 50.6667 -71.8500 190° South 440 506 34,000  Level Montreal Center
Sun 12:14:15 PM 50.5500 -71.8833 190° South 440 506 34,000  Level Montreal Center
Sun 12:15:15 PM 50.4167 -71.9167 189° South 440 506 34,000  Level Montreal Center
Sun 12:16:15 PM 50.3000 -71.9833 200° South 450 518 34,000  Level Montreal Center
Sun 12:17:15 PM 50.1833 -72.0167 190° South 440 506 34,000  Level Montreal Center
Sun 12:18:15 PM 50.0667 -72.0667 195° South 440 506 34,000  Level Montreal Center
Sun 12:19:15 PM 49.9500 -72.1167 195° South 440 506 34,000  Level Montreal Center
Sun 12:20:15 PM 49.8333 -72.1500 190° South 440 506 34,000  Level Montreal Center
Sun 12:21:15 PM 49.7167 -72.2000 195° South 440 506 34,000  Level Montreal Center
Sun 12:22:15 PM 49.6000 -72.2500 196° South 440 506 34,000  Level Montreal Center
Sun 12:23:15 PM 49.4667 -72.2833 189° South 440 506 34,000  Level Montreal Center
Sun 12:24:15 PM 49.3500 -72.3333 196° South 440 506 34,000  Level Montreal Center
Sun 12:25:15 PM 49.2500 -72.3833 198° South 440 506 34,000  Level Montreal Center
Sun 12:26:15 PM 49.1167 -72.4167 189° South 440 506 34,000  Level Montreal Center
Sun 12:27:15 PM 49.0000 -72.4500 191° South 440 506 34,000  Level Montreal Center
Sun 12:28:15 PM 48.8833 -72.5167 201° Southwest 440 506 34,000  Level Montreal Center
Sun 12:29:15 PM 48.7667 -72.5500 191° South 440 506 34,000 288 Level Montreal Center
Sun 12:35:12 PM 48.0490 -72.8260 191° South 447 514 36,000 295 Climbing FlightAware ADS-B
Sun 12:36:02 PM 47.9540 -72.8580 193° South 446 513 36,000  Level FlightAware ADS-B
Sun 12:36:42 PM 47.8850 -72.8800 192° South 446 513 36,000  Level FlightAware ADS-B
Sun 12:37:22 PM 47.8170 -72.9020 192° South 446 513 36,000  Level FlightAware ADS-B
Sun 12:38:12 PM 47.7310 -72.9290 192° South 446 513 36,000  Level FlightAware ADS-B
Sun 12:38:42 PM 47.6790 -72.9450 192° South 446 513 36,000  Level FlightAware ADS-B
Sun 12:39:32 PM 47.5940 -72.9720 192° South 446 513 36,000  Level FlightAware ADS-B
Sun 12:40:07 PM 47.4680 -73.0260 196° South 433 498 36,000  Level FlightAware ADS-B
Sun 12:40:57 PM 47.3720 -73.0580 193° South 435 501 36,000  Level FlightAware ADS-B
Sun 12:41:42 PM 47.2820 -73.0880 193° South 435 501 36,000  Level FlightAware ADS-B
Sun 12:42:12 PM 47.2250 -73.1070 193° South 436 502 36,000  Level FlightAware ADS-B
Sun 12:42:57 PM 47.1350 -73.1370 193° South 438 504 36,000  Level FlightAware ADS-B
Sun 12:44:02 PM 47.0030 -73.1800 193° South 440 506 36,000  Level FlightAware ADS-B
Sun 12:44:42 PM 46.9240 -73.2060 193° South 440 506 36,000  Level FlightAware ADS-B
Sun 12:45:22 PM 46.8450 -73.2320 193° South 440 506 36,000  Level FlightAware ADS-B
Sun 12:46:02 PM 46.7600 -73.2590 192° South 440 506 36,000  Level FlightAware ADS-B
Sun 12:47:02 PM 46.6490 -73.2950 193° South 440 506 36,000  Level FlightAware ADS-B
Sun 12:47:47 PM 46.5560 -73.3240 192° South 441 507 36,000  Level FlightAware ADS-B
Sun 12:48:17 PM 46.4960 -73.3430 192° South 441 507 36,000  Level FlightAware ADS-B
Sun 12:49:07 PM 46.3990 -73.3740 192° South 443 510 36,000  Level FlightAware ADS-B
Sun 12:49:47 PM 46.3150 -73.4010 193° South 444 511 36,000  Level FlightAware ADS-B
Sun 12:50:32 PM 46.2310 -73.4270 192° South 444 511 36,000  Level FlightAware ADS-B
Sun 12:51:07 PM 46.1520 -73.4440 188° South 452 520 36,000  Level FlightAware ADS-B
Sun 12:51:57 PM 46.0510 -73.4510 183° South 455 524 36,000  Level FlightAware ADS-B
Sun 12:52:37 PM 45.9660 -73.4560 182° South 454 522 36,000  Level FlightAware ADS-B
Sun 12:53:22 PM 45.8720 -73.4620 183° South 453 521 36,000  Level FlightAware ADS-B
Sun 12:54:32 PM 45.7240 -73.4710 182° South 452 520 36,000  Level FlightAware ADS-B
Sun 12:55:07 PM 45.6490 -73.4760 183° South 451 519 36,000  Level FlightAware ADS-B
Sun 12:55:52 PM 45.5540 -73.4820 183° South 448 516 36,000  Level FlightAware ADS-B
Sun 12:56:37 PM 45.4580 -73.4870 182° South 447 514 36,000  Level FlightAware ADS-B
Sun 12:57:17 PM 45.3760 -73.4920 182° South 445 512 36,000  Level FlightAware ADS-B
Sun 12:58:02 PM 45.2860 -73.4970 182° South 443 510 36,000  Level FlightAware ADS-B
Sun 12:58:42 PM 45.2060 -73.5020 183° South 441 507 36,000  Level FlightAware ADS-B
Sun 12:59:27 PM 45.1110 -73.5070 182° South 440 506 36,000  Level FlightAware ADS-B
Sun 12:59:57 PM 45.0520 -73.5110 183° South 440 506 36,000  Level FlightAware ADS-B
Sun 01:00:47 PM 44.9520 -73.5160 182° South 440 506 36,000  Level FlightAware ADS-B
Sun 01:01:32 PM 44.8570 -73.5210 182° South 440 506 36,000  Level FlightAware ADS-B
Sun 01:02:12 PM 44.7760 -73.5260 183° South 440 506 36,000  Level FlightAware ADS-B
Sun 01:02:52 PM 44.6950 -73.5300 182° South 441 507 36,000  Level FlightAware ADS-B
Sun 01:03:32 PM 44.6190 -73.5260 178° South 447 514 36,000  Level FlightAware ADS-B
Sun 01:04:17 PM 44.5210 -73.5140 175° South 446 513 36,000  Level FlightAware ADS-B
Sun 01:05:02 PM 44.4290 -73.5030 175° South 446 513 36,000  Level FlightAware ADS-B
Sun 01:05:42 PM 44.3470 -73.4930 175° South 446 513 36,000  Level FlightAware ADS-B
Sun 01:06:22 PM 44.2630 -73.4820 175° South 445 512 36,000  Level FlightAware ADS-B
Sun 01:07:02 PM 44.1830 -73.4730 175° South 444 511 36,000  Level FlightAware ADS-B
Sun 01:07:47 PM 44.0900 -73.4610 175° South 443 510 36,000  Level FlightAware ADS-B
Sun 01:08:27 PM 44.0100 -73.4520 175° South 443 510 36,000  Level FlightAware ADS-B
Sun 01:09:12 PM 43.9200 -73.4410 175° South 443 510 36,000  Level FlightAware ADS-B
Sun 01:09:52 PM 43.8330 -73.4310 175° South 441 507 36,000  Level FlightAware ADS-B
Sun 01:10:37 PM 43.7430 -73.4200 175° South 439 505 36,000  Level FlightAware ADS-B
Sun 01:11:17 PM 43.6640 -73.4100 175° South 437 503 36,000  Level FlightAware ADS-B
Sun 01:11:57 PM 43.5820 -73.4040 177° South 430 495 36,000  Level FlightAware ADS-B
Sun 01:12:37 PM 43.5060 -73.4110 184° South 422 486 36,000  Level FlightAware ADS-B
Sun 01:13:22 PM 43.4160 -73.4330 190° South 419 482 36,000  Level FlightAware ADS-B
Sun 01:13:57 PM 43.3980 -73.4370 189° South 419 482 36,000  Level FlightAware ADS-B
Sun 01:14:47 PM 43.2990 -73.4600 190° South 419 482 36,000  Level FlightAware ADS-B
Sun 01:15:27 PM 43.2230 -73.4760 189° South 421 484 36,000  Level FlightAware ADS-B
Sun 01:16:12 PM 43.1390 -73.4950 189° South 419 482 36,000  Level FlightAware ADS-B
Sun 01:16:52 PM 43.0150 -73.5210 189° South 417 480 36,000  Level FlightAware ADS-B
Sun 01:17:32 PM 42.9390 -73.5370 189° South 418 481 36,000  Level FlightAware ADS-B
Sun 01:18:17 PM 42.8560 -73.5540 189° South 418 481 36,000 -141 Level FlightAware ADS-B
Sun 01:18:57 PM 42.7780 -73.5690 188° South 415 478 35,800 -776 Descending FlightAware ADS-B
Sun 01:19:42 PM 42.6960 -73.5860 189° South 415 478 34,900 -1,059 Descending FlightAware ADS-B
Sun 01:20:22 PM 42.6180 -73.6020 189° South 410 472 34,300 -975 Descending FlightAware ADS-B
Sun 01:21:02 PM 42.5430 -73.6170 188° South 408 470 33,600 -1,271 Descending FlightAware ADS-B
Sun 01:21:47 PM 42.4560 -73.6350 189° South 415 478 32,500 -1,275 Descending FlightAware ADS-B
Sun 01:22:22 PM 42.3950 -73.6470 188° South 416 479 31,900 -988 Descending FlightAware ADS-B
Sun 01:23:12 PM 42.3030 -73.6660 189° South 412 474 31,100 -1,133 Descending FlightAware ADS-B
Sun 01:23:52 PM 42.2230 -73.6820 188° South 414 476 30,200 -1,125 Descending FlightAware ADS-B
Sun 01:24:32 PM 42.1440 -73.6980 189° South 407 468 29,600 -918 Descending FlightAware ADS-B
Sun 01:25:17 PM 42.0610 -73.7150 189° South 404 465 28,900 -635 Descending FlightAware ADS-B
Sun 01:25:57 PM 41.9910 -73.7280 188° South 403 464 28,700 -880 Descending FlightAware ADS-B
Sun 01:26:32 PM 41.9280 -73.7440 191° South 397 457 27,800 -1,080 Descending FlightAware ADS-B
Sun 01:27:37 PM 41.8140 -73.7990 200° South 383 441 26,900 -857 Descending FlightAware ADS-B
Sun 01:28:17 PM 41.7470 -73.8370 203° Southwest 383 441 26,300 -973 Descending FlightAware ADS-B
Sun 01:28:51 PM 41.6887 -73.8684 202° Southwest 387 445 25,700 -985 Descending FlightAware ADS-B
Sun 01:29:24 PM 41.6349 -73.8975 202° Southwest 388 447 25,200 -818 Descending FlightAware ADS-B
Sun 01:29:57 PM 41.5790 -73.9276 202° Southwest 387 445 24,800 -1,313 Descending FlightAware ADS-B
Sun 01:30:28 PM 41.5280 -73.9549 202° Southwest 381 438 23,800 -2,095 Descending FlightAware ADS-B
Sun 01:31:00 PM 41.4772 -73.9823 202° Southwest 377 434 22,600 -2,381 Descending FlightAware ADS-B
Sun 01:31:31 PM 41.4272 -74.0092 202° Southwest 374 430 21,300 -2,423 Descending FlightAware ADS-B
Sun 01:31:52 PM 41.3939 -74.0274 202° Southwest 371 427 20,500 -2,143 Descending FlightAware ADS-B
Sun 01:31:59 PM 41.3817 -74.0349 205° Southwest 367 422 20,300 -1,500 Descending FlightAware ADS-B
Sun 01:32:08 PM 41.3696 -74.0430 207° Southwest 362 417 20,100 -462 Descending FlightAware ADS-B
Sun 01:32:38 PM 41.3256 -74.0785 211° Southwest 363 418 20,000 -97 Descending FlightAware ADS-B
Sun 01:33:10 PM 41.2822 -74.1155 213° Southwest 347 399 20,000  Level FlightAware ADS-B
Sun 01:33:41 PM 41.2431 -74.1494 213° Southwest 315 362 20,000  Level FlightAware ADS-B
Sun 01:34:12 PM 41.2071 -74.1806 213° Southwest 296 341 20,000  Level FlightAware ADS-B
Sun 01:34:42 PM 41.1729 -74.2105 213° Southwest 292 336 20,000 -115 Level FlightAware ADS-B
Sun 01:35:04 PM 41.1485 -74.2316 213° Southwest 295 339 19,900 -343 Descending FlightAware ADS-B
Sun 01:35:17 PM 41.1317 -74.2435 208° Southwest 303 349 19,800 -545 Descending FlightAware ADS-B
Sun 01:35:26 PM 41.1203 -74.2483 198° South 309 356 19,700 -706 Descending FlightAware ADS-B
Sun 01:35:34 PM 41.1083 -74.2506 188° South 319 367 19,600 -353 Descending FlightAware ADS-B
Sun 01:35:43 PM 41.0949 -74.2504 179° South 340 391 19,600  Level FlightAware ADS-B
Sun 01:35:51 PM 41.0820 -74.2474 170° South 352 405 19,600  Level FlightAware ADS-B
Sun 01:36:05 PM 41.0606 -74.2347 156° South 359 413 19,600 -682 Level FlightAware ADS-B
Sun 01:36:35 PM 41.0186 -74.2027 150° Southeast 345 397 19,100 -857 Descending FlightAware ADS-B
Sun 01:36:40 PM 41.0126 -74.1978 148° Southeast 344 396 19,100 -182 Level FlightAware ADS-B
Sun 01:37:08 PM 40.9748 -74.1681 149° Southeast 337 388 19,000 -105 Descending FlightAware ADS-B
Sun 01:37:37 PM 40.9350 -74.1376 150° Southeast 341 392 19,000  Level FlightAware ADS-B
Sun 01:37:42 PM 40.9274 -74.1329 155° Southeast 338 389 19,000  Level FlightAware ADS-B
Sun 01:37:49 PM 40.9171 -74.1277 159° South 334 384 19,000  Level FlightAware ADS-B
Sun 01:38:13 PM 40.8825 -74.1106 160° South 336 387 19,000  Level FlightAware ADS-B
Sun 01:38:20 PM 40.8726 -74.1057 159° South 336 387 19,000 -316 Level FlightAware ADS-B
Sun 01:38:51 PM 40.8278 -74.0833 159° South 334 384 18,800 -500 Descending FlightAware ADS-B
Sun 01:38:56 PM 40.8210 -74.0798 159° South 330 380 18,700 -1,500 Descending FlightAware ADS-B
Sun 01:39:23 PM 40.7820 -74.0607 160° South 328 377 18,000 -1,600 Descending FlightAware ADS-B
Sun 01:39:26 PM 40.7783 -74.0590 161° South 326 375 17,900 -1,588 Descending FlightAware ADS-B
Sun 01:39:57 PM 40.7336 -74.0374 160° South 326 375 17,100 -1,545 Descending FlightAware ADS-B
Sun 01:40:32 PM 40.6843 -74.0138 160° South 326 375 16,200 -1,364 Descending FlightAware ADS-B
Sun 01:41:03 PM 40.6411 -73.9932 160° South 318 366 15,600 -1,429 Descending FlightAware ADS-B
Sun 01:41:35 PM 40.5968 -73.9732 161° South 317 365 14,700 -1,846 Descending FlightAware ADS-B
Sun 01:42:08 PM 40.5511 -73.9530 161° South 314 361 13,600 -2,000 Descending FlightAware ADS-B
Sun 01:42:38 PM 40.5101 -73.9352 162° South 306 352 12,600 -2,164 Descending FlightAware ADS-B
Sun 01:43:09 PM 40.4691 -73.9181 162° South 301 346 11,400 -2,459 Descending FlightAware ADS-B
Sun 01:43:39 PM 40.4289 -73.9025 164° South 297 342 10,100 -2,375 Descending FlightAware ADS-B
Sun 01:43:57 PM 40.4057 -73.8933 163° South 293 337 9,500 -2,294 Descending FlightAware ADS-B
Sun 01:44:13 PM 40.3845 -73.8856 165° South 292 336 8,800 -2,545 Descending FlightAware ADS-B
Sun 01:44:30 PM 40.3624 -73.8781 166° South 291 335 8,100 -2,364 Descending FlightAware ADS-B
Sun 01:44:46 PM 40.3413 -73.8705 165° South 288 331 7,500 -2,276 Descending FlightAware ADS-B
Sun 01:44:59 PM 40.3254 -73.8648 165° South 285 328 7,000 -2,211 Descending FlightAware ADS-B
Sun 01:45:05 PM 40.3178 -73.8610 159° South 283 326 6,800 -2,160 Descending FlightAware ADS-B
Sun 01:45:24 PM 40.2997 -73.8392 137° Southeast 277 319 6,100 -2,167 Descending FlightAware ADS-B
Sun 01:45:41 PM 40.2943 -73.8125 105° East 268 308 5,500 -2,250 Descending FlightAware ADS-B
Sun 01:45:56 PM 40.2987 -73.7908 75° East 259 298 4,900 -2,211 Descending FlightAware ADS-B
Sun 01:46:19 PM 40.3189 -73.7693 39° Northeast 249 287 4,100 -1,800 Descending FlightAware ADS-B
Sun 01:46:46 PM 40.3487 -73.7585 15° North 245 282 3,400 -1,412 Descending FlightAware ADS-B
Sun 01:47:27 PM 40.3850 -73.7350 26° Northeast 240 276 2,500 -1,268 Descending FlightAware ADS-B
Sun 01:47:57 PM 40.4130 -73.7170 26° Northeast 241 277 1,900 -1,320 Descending FlightAware ADS-B
Sun 01:48:17 PM 40.4380 -73.7000 27° Northeast 240 276 1,400 -600 Descending FlightAware ADS-B
Sun 01:48:47 PM 40.4660 -73.6830 25° Northeast 208 239 1,400  Level FlightAware ADS-B
Sun 01:49:22 PM 40.4920 -73.6660 26° Northeast 186 214 1,400  Level FlightAware ADS-B
Sun 01:49:32 PM 40.5020 -73.6610 21° North 185 213 1,400  Level FlightAware ADS-B
Sun 01:49:47 PM 40.5130 -73.6610 360° North 184 212 1,400 400 Level FlightAware ADS-B
Sun 01:50:17 PM 40.5410 -73.6630 357° North 183 211 1,700 109 Climbing FlightAware ADS-B
Sun 01:50:42 PM 40.5600 -73.6680 349° North 168 193 1,500 -600 Descending FlightAware ADS-B
Sun 01:50:57 PM 40.5710 -73.6750 334° Northwest 165 190 1,300 -667 Descending FlightAware ADS-B
Sun 01:51:27 PM 40.5900 -73.6920 326° Northwest 161 185 1,000 -750 Descending FlightAware ADS-B
Sun 01:51:37 PM 40.5950 -73.6980 318° Northwest 154 177 800 -900 Descending FlightAware ADS-B
Sun 01:52:07 PM 40.6060 -73.7210 302° West 156 180 400 -800 Descending FlightAware ADS-B
Sun 01:52:37 PM 40.6170 -73.7450 301° West 148 170 -800 Descending FlightAware ADS-B
Sun 01:53:02 PM 40.6260 -73.7650 301° West 152 175  Level FlightAware ADS-B

Login

Don't have an account? Register now (free) for customized features, flight alerts, and more!